createdAt,value
2018-09-11T00:02:51.564Z,13.90
2018-09-11T00:07:31.480Z,13.90
2018-09-11T00:12:11.557Z,13.90
2018-09-11T00:16:51.524Z,13.90
2018-09-11T00:21:31.408Z,14.00
2018-09-11T00:26:11.479Z,14.00
2018-09-11T00:30:52.756Z,13.90
2018-09-11T00:35:32.513Z,13.70
2018-09-11T00:40:12.300Z,13.60
2018-09-11T00:44:52.269Z,13.50
2018-09-11T00:49:32.833Z,13.40
2018-09-11T00:54:12.768Z,13.40
2018-09-11T00:58:53.320Z,13.40
2018-09-11T01:03:33.762Z,13.40
2018-09-11T01:08:14.853Z,13.40
2018-09-11T01:12:55.459Z,13.30
2018-09-11T01:17:35.429Z,13.30
2018-09-11T01:22:15.260Z,13.20
2018-09-11T01:26:55.248Z,13.20
2018-09-11T01:31:35.724Z,13.20
2018-09-11T01:36:16.971Z,13.10
2018-09-11T01:40:56.633Z,13.10
2018-09-11T01:45:37.157Z,13.00
2018-09-11T01:50:18.716Z,13.00
2018-09-11T01:54:58.427Z,12.80
2018-09-11T01:59:38.232Z,12.70
2018-09-11T02:04:18.528Z,12.70
2018-09-11T02:08:59.400Z,12.70
2018-09-11T02:13:39.200Z,12.60
2018-09-11T02:18:18.991Z,12.50
2018-09-11T02:22:58.695Z,12.40
2018-09-11T02:27:38.584Z,12.30
2018-09-11T02:32:19.156Z,12.20
2018-09-11T02:36:59.526Z,12.10
2018-09-11T02:41:40.560Z,12.10
2018-09-11T02:46:21.304Z,12.10
2018-09-11T02:51:02.048Z,12.10
2018-09-11T02:55:42.670Z,12.10
2018-09-11T03:00:22.596Z,12.00
2018-09-11T03:05:02.584Z,11.90
2018-09-11T03:09:42.380Z,11.90
2018-09-11T03:14:22.824Z,11.80
2018-09-11T03:19:03.139Z,11.80
2018-09-11T03:23:43.509Z,11.70
2018-09-11T03:28:23.888Z,11.70
2018-09-11T03:33:03.888Z,11.70
2018-09-11T03:37:44.200Z,11.60
2018-09-11T03:42:24.787Z,11.60
2018-09-11T03:47:05.099Z,11.50
2018-09-11T03:51:45.668Z,11.50
2018-09-11T03:56:26.074Z,11.50
2018-09-11T04:01:07.213Z,11.40
2018-09-11T04:05:47.077Z,11.40
2018-09-11T04:10:27.111Z,11.40
2018-09-11T04:15:07.086Z,11.40
2018-09-11T04:19:48.172Z,11.30
2018-09-11T04:24:28.168Z,11.30
2018-09-11T04:29:08.085Z,11.20
2018-09-11T04:33:48.680Z,11.20
2018-09-11T04:38:29.648Z,11.20
2018-09-11T04:43:09.567Z,11.10
2018-09-11T04:47:49.451Z,11.00
2018-09-11T04:52:29.269Z,10.90
2018-09-11T04:57:11.480Z,10.90
2018-09-11T05:01:51.208Z,10.90
2018-09-11T05:06:31.005Z,10.80
2018-09-11T05:11:10.868Z,10.80
2018-09-11T05:15:51.448Z,10.70
2018-09-11T05:20:31.322Z,10.70
2018-09-11T05:25:11.177Z,10.80
2018-09-11T05:29:50.891Z,10.80
2018-09-11T05:34:32.089Z,10.70
2018-09-11T05:39:11.948Z,10.80
2018-09-11T05:43:52.491Z,10.90
2018-09-11T05:48:32.929Z,11.10
2018-09-11T05:53:12.908Z,11.20
2018-09-11T05:57:52.848Z,11.40
2018-09-11T06:02:32.879Z,11.60
2018-09-11T06:07:13.789Z,11.90
2018-09-11T06:11:54.846Z,12.10
2018-09-11T06:16:34.596Z,12.40
2018-09-11T06:21:15.196Z,12.70
2018-09-11T06:25:56.131Z,13.10
2018-09-11T06:30:36.686Z,13.50
2018-09-11T06:35:17.076Z,13.90
2018-09-11T06:39:57.664Z,14.20
2018-09-11T06:44:37.757Z,14.50
2018-09-11T06:49:18.532Z,14.90
2018-09-11T06:53:58.636Z,15.30
2018-09-11T06:58:39.665Z,15.70
2018-09-11T07:03:19.789Z,16.00
2018-09-11T07:08:00.052Z,16.30
2018-09-11T07:12:39.869Z,16.60
2018-09-11T07:17:20.287Z,16.80
2018-09-11T07:22:00.027Z,17.10
2018-09-11T07:26:41.099Z,17.40
2018-09-11T07:31:22.273Z,18.00
2018-09-11T07:36:04.004Z,19.20
2018-09-11T07:40:44.057Z,20.70
2018-09-11T07:45:23.765Z,22.20
2018-09-11T07:50:04.348Z,23.90
2018-09-11T07:54:46.053Z,25.30
2018-09-11T07:59:26.652Z,26.10
2018-09-11T08:04:08.212Z,26.40
2018-09-11T08:08:48.832Z,26.80
2018-09-11T08:13:30.833Z,28.20
2018-09-11T08:18:11.888Z,29.40
2018-09-11T08:22:52.385Z,30.50
2018-09-11T08:27:36.417Z,31.20
2018-09-11T08:32:16.819Z,31.80
2018-09-11T08:36:57.609Z,32.10
2018-09-11T08:41:38.332Z,32.80
2018-09-11T08:46:18.318Z,33.30
2018-09-11T08:50:59.728Z,33.20
2018-09-11T08:55:40.079Z,33.50
2018-09-11T09:00:20.485Z,33.90
2018-09-11T09:05:00.492Z,34.50
2018-09-11T09:09:40.702Z,35.10
2018-09-11T09:14:21.107Z,35.70
2018-09-11T09:19:02.168Z,36.20
2018-09-11T09:23:42.743Z,36.50
2018-09-11T09:28:24.474Z,36.80
2018-09-11T09:33:04.728Z,36.70
2018-09-11T09:37:44.902Z,37.20
2018-09-11T09:42:26.006Z,37.70
2018-09-11T09:47:06.584Z,38.40
2018-09-11T09:51:47.132Z,38.50
2018-09-11T09:56:28.544Z,38.30
2018-09-11T10:01:14.208Z,38.90
2018-09-11T10:05:56.048Z,39.60
2018-09-11T10:10:36.078Z,39.70
2018-09-11T10:15:16.419Z,40.10
2018-09-11T10:19:57.132Z,40.60
2018-09-11T10:24:39.630Z,41.10
2018-09-11T10:29:19.617Z,41.20
2018-09-11T10:34:01.249Z,41.70
2018-09-11T10:38:42.542Z,42.10
2018-09-11T10:43:22.489Z,41.80
2018-09-11T10:48:02.355Z,41.70
2018-09-11T10:52:43.048Z,42.30
2018-09-11T10:57:23.107Z,43.10
2018-09-11T11:02:04.155Z,43.20
2018-09-11T11:06:44.372Z,42.80
2018-09-11T11:11:24.419Z,42.50
2018-09-11T11:16:04.969Z,42.70
2018-09-11T11:20:45.056Z,42.50
2018-09-11T11:25:25.468Z,43.00
2018-09-11T11:30:06.298Z,43.60
2018-09-11T11:34:47.313Z,43.80
2018-09-11T11:39:27.428Z,43.50
2018-09-11T11:44:07.820Z,43.30
2018-09-11T11:48:48.180Z,43.10
2018-09-11T11:53:28.420Z,42.70
2018-09-11T11:58:09.205Z,42.70
2018-09-11T12:02:49.862Z,42.80
2018-09-11T12:07:29.927Z,42.50
2018-09-11T12:12:10.438Z,41.80
2018-09-11T12:16:50.307Z,42.10
2018-09-11T12:21:31.079Z,42.10
2018-09-11T12:26:11.056Z,41.90
2018-09-11T12:30:52.605Z,41.60
2018-09-11T12:35:33.491Z,41.30
2018-09-11T12:40:13.537Z,41.30
2018-09-11T12:44:54.433Z,41.40
2018-09-11T12:49:35.474Z,41.40
2018-09-11T12:54:15.233Z,41.20
2018-09-11T12:58:56.221Z,41.10
2018-09-11T13:03:36.921Z,41.00
2018-09-11T13:08:17.859Z,40.60
2018-09-11T13:12:58.356Z,40.70
2018-09-11T13:17:38.330Z,40.20
2018-09-11T13:22:18.407Z,40.40
2018-09-11T13:26:58.489Z,41.10
2018-09-11T13:31:39.204Z,40.90
2018-09-11T13:36:18.898Z,40.30
2018-09-11T13:40:58.981Z,40.00
2018-09-11T13:45:38.962Z,39.80
2018-09-11T13:50:19.166Z,39.60
2018-09-11T13:54:58.871Z,39.80
2018-09-11T13:59:39.930Z,39.90
2018-09-11T14:04:20.686Z,39.50
2018-09-11T14:09:01.564Z,38.60
2018-09-11T14:13:41.504Z,38.00
2018-09-11T14:18:21.864Z,37.10
2018-09-11T14:23:01.946Z,36.00
2018-09-11T14:27:41.940Z,35.30
2018-09-11T14:32:22.492Z,34.70
2018-09-11T14:37:04.516Z,33.90
2018-09-11T14:41:45.774Z,33.10
2018-09-11T14:46:25.917Z,32.50
2018-09-11T14:51:07.568Z,32.30
2018-09-11T14:55:48.662Z,32.00
2018-09-11T15:00:28.572Z,31.90
2018-09-11T15:05:09.120Z,31.70
2018-09-11T15:09:49.289Z,31.40
2018-09-11T15:14:29.576Z,31.20
2018-09-11T15:19:09.511Z,31.10
2018-09-11T15:23:49.819Z,31.10
2018-09-11T15:28:30.619Z,31.00
2018-09-11T15:33:10.819Z,30.60
2018-09-11T15:37:50.696Z,30.30
2018-09-11T15:42:31.875Z,30.20
2018-09-11T15:47:12.051Z,30.00
2018-09-11T15:51:52.914Z,29.80
2018-09-11T15:56:33.788Z,29.80
2018-09-11T16:01:13.809Z,29.50
2018-09-11T16:05:54.721Z,29.40
2018-09-11T16:10:34.949Z,29.30
2018-09-11T16:15:15.073Z,29.10
2018-09-11T16:19:55.016Z,28.80
2018-09-11T16:24:35.066Z,28.60
2018-09-11T16:29:15.531Z,28.50
2018-09-11T16:33:56.268Z,28.40
2018-09-11T16:38:36.217Z,28.20
2018-09-11T16:43:16.522Z,27.90
2018-09-11T16:47:57.093Z,27.40
2018-09-11T16:52:37.053Z,26.80
2018-09-11T16:57:18.117Z,26.70
2018-09-11T17:01:57.892Z,26.30
2018-09-11T17:06:37.864Z,25.90
2018-09-11T17:11:19.456Z,25.50
2018-09-11T17:16:00.062Z,25.10
2018-09-11T17:20:39.938Z,24.90
2018-09-11T17:25:20.047Z,24.70
2018-09-11T17:30:00.060Z,24.40
2018-09-11T17:34:40.720Z,24.20
2018-09-11T17:39:21.242Z,24.00
2018-09-11T17:44:01.157Z,23.70
2018-09-11T17:48:41.551Z,23.40
2018-09-11T17:53:21.769Z,23.00
2018-09-11T17:58:01.820Z,22.80
2018-09-11T18:02:41.946Z,22.40
2018-09-11T18:07:21.769Z,22.10
2018-09-11T18:12:01.557Z,21.80
2018-09-11T18:16:41.623Z,21.50
2018-09-11T18:21:21.925Z,21.20
2018-09-11T18:26:01.920Z,21.00
2018-09-11T18:30:41.631Z,20.60
2018-09-11T18:35:21.881Z,20.40
2018-09-11T18:40:01.870Z,20.20
2018-09-11T18:44:41.868Z,20.00
2018-09-11T18:49:22.657Z,19.80
2018-09-11T18:54:02.566Z,19.50
2018-09-11T18:58:42.161Z,19.30
2018-09-11T19:03:22.533Z,19.20
2018-09-11T19:08:02.525Z,18.90
2018-09-11T19:12:43.146Z,18.80
2018-09-11T19:17:23.057Z,18.70
2018-09-11T19:22:02.998Z,18.60
2018-09-11T19:26:43.439Z,18.50
2018-09-11T19:31:24.336Z,18.30
2018-09-11T19:36:04.703Z,18.20
2018-09-11T19:40:44.687Z,18.10
2018-09-11T19:45:25.462Z,17.90
2018-09-11T19:50:06.250Z,17.60
2018-09-11T19:54:46.032Z,17.40
2018-09-11T19:59:27.671Z,17.20
2018-09-11T20:04:07.614Z,17.00
2018-09-11T20:08:47.869Z,17.00
2018-09-11T20:13:28.068Z,16.80
2018-09-11T20:18:08.652Z,16.80
2018-09-11T20:22:49.079Z,16.80
2018-09-11T20:27:30.376Z,16.60
2018-09-11T20:32:11.057Z,16.50
2018-09-11T20:36:51.637Z,16.50
2018-09-11T20:41:32.207Z,16.40
2018-09-11T20:46:12.238Z,16.20
2018-09-11T20:50:53.249Z,16.10
2018-09-11T20:55:35.022Z,15.90
2018-09-11T21:00:14.948Z,15.80
2018-09-11T21:04:55.168Z,15.70
2018-09-11T21:09:35.151Z,15.60
2018-09-11T21:14:15.038Z,15.50
2018-09-11T21:18:55.004Z,15.50
2018-09-11T21:23:36.104Z,15.30
2018-09-11T21:28:16.101Z,15.20
2018-09-11T21:32:57.400Z,15.10
2018-09-11T21:37:37.335Z,15.00
2018-09-11T21:42:18.360Z,15.00
2018-09-11T21:46:58.911Z,15.10
2018-09-11T21:51:39.116Z,15.00
2018-09-11T21:56:19.941Z,14.90
2018-09-11T22:01:02.399Z,14.70
2018-09-11T22:05:42.655Z,14.60
2018-09-11T22:10:23.399Z,14.60
2018-09-11T22:15:04.260Z,14.60
2018-09-11T22:19:44.160Z,14.60
2018-09-11T22:24:24.351Z,14.50
2018-09-11T22:29:04.585Z,14.30
2018-09-11T22:33:44.601Z,14.30
2018-09-11T22:38:24.865Z,14.20
2018-09-11T22:43:05.296Z,14.20
2018-09-11T22:47:45.644Z,14.20
2018-09-11T22:52:26.543Z,14.10
2018-09-11T22:57:07.838Z,14.00
2018-09-11T23:01:47.673Z,13.80
2018-09-11T23:06:28.051Z,13.80
2018-09-11T23:11:08.923Z,13.70
2018-09-11T23:15:49.624Z,13.60
2018-09-11T23:20:30.728Z,13.70
2018-09-11T23:25:11.457Z,13.70
2018-09-11T23:29:52.259Z,13.60
2018-09-11T23:34:32.485Z,13.60
2018-09-11T23:39:12.289Z,13.60
2018-09-11T23:43:52.381Z,13.50
2018-09-11T23:48:32.584Z,13.40
2018-09-11T23:53:12.784Z,13.40
2018-09-11T23:57:52.996Z,13.40
